Main page
Satellite images 15-day forecastsClimateMarine weather Cyclones Lightning AirportsFAQ Newsletter About
Weather : Europe Africa North America South America Asia Australia-Oceania Others
Languages Contact

Belgrade, Serbia

Nikola Tesla

latitude: 44-49N, longitude: 020-17E, elevation: 96 m


METAR: LYBE 241730Z 06006KT CAVOK 10/07 Q1018 NOSIG
TAF: LYBE 241700Z 2418/2518 07006KT 9999 BKN030 TX14/2512Z TN05/2504Z

Time: 20:01 (18:01 UTC)

Current weather observation

The report was made 31 minutes ago, at 17:30 UTC
Wind 6 kt from the East/Northeast
Temperature 10°C
Humidity 82%
Pressure 1018 hPa
Visibility 10 km or more
no clouds below 1500 m and no cumulonimbus

Change units

Forecast

The report was made 1 hour and 1 minutes ago, at 17:00 UTC
Forecast valid from 24 at 18 UTC to 25 at 18 UTC
Wind 6 kt from the East/Northeast
Visibility 10 km or more
Broken clouds at a height of 3000 ft
The information on this site is subject to a disclaimer
Weather : Europe Africa North America South America Asia Australia-Oceania Others
Satellite images 15-day forecastsClimateMarine weather Cyclones Lightning AirportsFAQ Languages Contact Newsletter About